Time;durP1;ratioP1;P1;durP2;ratioP2;P2;SDS_P1;SDS_P2;PMS_P1;PMS_P2;Temp;Humidity;BMP_temperature;BMP_pressure;BME280_temperature;BME280_humidity;BME280_pressure;Samples;Min_cycle;Max_cycle;Signal;HPM_P1;HPM_P2
2021/09/16 00:00:07;;;;;;;3.77;3.40;;;15.70;99.90;;;;;;5057354;28;20466;-62
2021/09/16 00:02:34;;;;;;;6.33;4.00;;;15.70;99.90;;;;;;5057316;28;20462;-62
2021/09/16 00:05:01;;;;;;;10.73;4.10;;;15.70;99.90;;;;;;5056098;28;20462;-62
2021/09/16 00:07:28;;;;;;;8.00;4.10;;;15.60;99.90;;;;;;5056596;28;20462;-62
2021/09/16 00:09:56;;;;;;;7.47;5.57;;;15.60;99.90;;;;;;5056393;28;20543;-62
2021/09/16 00:12:23;;;;;;;5.97;5.30;;;15.50;99.90;;;;;;5056886;28;20505;-62
2021/09/16 00:14:50;;;;;;;4.83;4.27;;;15.50;99.90;;;;;;5057278;28;20458;-62
2021/09/16 00:17:18;;;;;;;5.90;4.30;;;15.40;99.90;;;;;;5056388;28;20505;-62
2021/09/16 00:19:46;;;;;;;6.57;4.40;;;15.40;99.90;;;;;;5056757;28;20463;-62
2021/09/16 00:22:13;;;;;;;7.00;4.67;;;15.40;99.90;;;;;;5057160;28;20545;-62
2021/09/16 00:24:40;;;;;;;6.70;4.40;;;15.40;99.90;;;;;;5056787;28;20904;-62
2021/09/16 00:27:07;;;;;;;5.93;4.00;;;15.40;99.90;;;;;;5056615;28;20490;-62
2021/09/16 00:29:35;;;;;;;5.33;3.93;;;15.40;99.90;;;;;;5056501;28;20496;-62
2021/09/16 00:32:02;;;;;;;4.70;4.30;;;15.40;99.90;;;;;;5056989;28;20624;-62
2021/09/16 00:34:30;;;;;;;5.60;3.93;;;15.40;99.90;;;;;;5056394;28;20505;-62
2021/09/16 00:36:57;;;;;;;8.90;4.93;;;15.40;99.90;;;;;;5057068;28;20507;-62
2021/09/16 00:39:24;;;;;;;8.20;4.77;;;15.40;99.90;;;;;;5056734;28;20490;-62
2021/09/16 00:41:51;;;;;;;4.57;3.37;;;15.30;99.90;;;;;;5056651;28;20454;-61
2021/09/16 00:44:18;;;;;;;6.57;4.57;;;15.30;99.90;;;;;;5056622;28;20600;-62
2021/09/16 00:46:45;;;;;;;4.30;3.53;;;15.30;99.40;;;;;;5056678;28;20505;-62
2021/09/16 00:49:12;;;;;;;9.43;3.63;;;15.20;99.90;;;;;;5056890;28;20458;-62
2021/09/16 00:51:44;;;;;;;4.30;3.47;;;15.20;99.90;;;;;;5056445;28;20846;-61
2021/09/16 00:54:14;;;;;;;7.47;3.47;;;15.10;99.90;;;;;;5056541;28;20939;-62
2021/09/16 00:56:44;;;;;;;14.83;4.20;;;15.00;99.90;;;;;;5056089;28;20940;-62
2021/09/16 00:59:13;;;;;;;6.40;4.50;;;15.10;99.90;;;;;;5056058;28;20508;-62
2021/09/16 01:01:40;;;;;;;4.20;3.17;;;15.10;99.90;;;;;;5056668;28;20545;-62
2021/09/16 01:04:07;;;;;;;4.93;3.10;;;15.10;99.90;;;;;;5056374;28;20509;-62
2021/09/16 01:06:35;;;;;;;9.10;3.50;;;15.10;99.90;;;;;;5056555;28;20520;-61
2021/09/16 01:09:03;;;;;;;3.80;3.30;;;15.10;99.90;;;;;;5056156;28;20825;-62
2021/09/16 01:11:30;;;;;;;5.70;2.60;;;15.00;99.90;;;;;;5036950;28;20494;-61
2021/09/16 01:13:57;;;;;;;7.37;2.93;;;15.00;99.90;;;;;;5036523;28;20503;-61
2021/09/16 01:16:24;;;;;;;5.30;2.87;;;15.00;99.90;;;;;;5037921;28;20463;-61
2021/09/16 01:18:51;;;;;;;3.67;2.70;;;15.10;99.90;;;;;;5039609;28;20463;-61
2021/09/16 01:21:21;;;;;;;4.93;2.73;;;15.00;35.80;;;;;;5039525;28;20455;-61
2021/09/16 01:23:49;;;;;;;5.53;3.03;;;14.90;55.90;;;;;;5039891;28;20517;-61
2021/09/16 01:26:16;;;;;;;4.83;3.27;;;14.70;27.40;;;;;;5039543;28;20529;-61
2021/09/16 01:28:43;;;;;;;6.77;2.77;;;14.60;1.00;;;;;;5047102;28;20535;-61
2021/09/16 01:31:10;;;;;;;7.03;2.40;;;14.60;5.40;;;;;;5059201;28;20529;-61
2021/09/16 01:33:38;;;;;;;3.87;2.50;;;14.50;7.20;;;;;;5059424;28;20462;-61
2021/09/16 01:36:10;;;;;;;5.57;2.57;;;14.40;7.10;;;;;;5059685;28;20458;-61
2021/09/16 01:38:37;;;;;;;3.40;2.77;;;14.40;41.20;;;;;;5059890;28;20501;-61
2021/09/16 01:41:05;;;;;;;7.07;3.30;;;14.30;72.00;;;;;;5059228;28;20493;-61
2021/09/16 01:43:32;;;;;;;3.37;2.93;;;14.20;83.50;;;;;;5059240;28;20893;-61
2021/09/16 01:45:59;;;;;;;6.73;3.10;;;14.20;99.90;;;;;;5059436;28;20493;-59
2021/09/16 01:48:29;;;;;;;4.53;2.60;;;14.10;99.90;;;;;;5059543;28;20498;-61
2021/09/16 01:50:59;;;;;;;9.20;3.27;;;14.10;99.90;;;;;;5059243;28;20533;-61
2021/09/16 01:53:26;;;;;;;8.20;3.07;;;14.00;99.90;;;;;;5059033;28;20556;-61
2021/09/16 01:55:53;;;;;;;7.60;3.10;;;13.90;99.90;;;;;;5059039;28;20470;-60
2021/09/16 01:58:21;;;;;;;7.03;3.57;;;13.90;99.90;;;;;;5058768;28;20966;-61
2021/09/16 02:00:48;;;;;;;5.30;3.17;;;13.90;99.90;;;;;;5059263;28;20474;-61
2021/09/16 02:03:15;;;;;;;4.90;3.10;;;13.90;99.90;;;;;;5058888;28;20759;-59
2021/09/16 02:05:42;;;;;;;5.20;3.17;;;13.80;99.90;;;;;;5058843;28;20508;-61
2021/09/16 02:08:09;;;;;;;5.97;3.33;;;13.80;99.90;;;;;;5059313;28;20893;-61
2021/09/16 02:10:36;;;;;;;4.10;3.10;;;13.90;1.00;;;;;;5058905;28;20456;-61
2021/09/16 02:13:03;;;;;;;8.87;4.13;;;14.00;22.80;;;;;;5058441;28;20516;-61
2021/09/16 02:15:31;;;;;;;4.57;3.57;;;14.10;99.90;;;;;;5058660;28;20472;-61
2021/09/16 02:17:58;;;;;;;6.63;3.50;;;14.20;1.00;;;;;;5058782;28;20943;-62
2021/09/16 02:20:25;;;;;;;5.57;4.33;;;14.20;99.90;;;;;;5058541;28;20548;-62
2021/09/16 02:22:52;;;;;;;8.57;3.80;;;14.30;99.90;;;;;;5058633;28;20494;-61
2021/09/16 02:25:19;;;;;;;6.10;3.60;;;14.20;99.90;;;;;;5058595;28;20520;-61
2021/09/16 02:27:46;;;;;;;6.93;3.70;;;14.20;28.40;;;;;;5048747;28;20569;-61
2021/09/16 02:30:15;;;;;;;10.37;5.00;;;14.30;59.00;;;;;;5058169;28;20462;-61
2021/09/16 02:32:44;;;;;;;4.10;3.77;;;14.20;1.00;;;;;;5058396;28;20493;-61
2021/09/16 02:35:12;;;;;;;6.70;3.70;;;14.20;17.90;;;;;;5058092;28;20501;-61
2021/09/16 02:37:40;;;;;;;6.50;3.47;;;14.20;3.50;;;;;;5058374;28;20470;-61
2021/09/16 02:40:11;;;;;;;5.60;3.90;;;14.30;3.70;;;;;;5058081;28;20470;-61
2021/09/16 02:42:39;;;;;;;5.53;3.37;;;14.30;1.00;;;;;;5058246;28;20465;-61
2021/09/16 02:45:07;;;;;;;5.63;3.20;;;14.30;99.90;;;;;;5057535;28;20849;-61
2021/09/16 02:47:34;;;;;;;8.23;4.23;;;14.30;99.90;;;;;;5058263;28;20837;-61
2021/09/16 02:50:05;;;;;;;4.40;3.13;;;14.30;99.90;;;;;;5057887;28;20904;-61
2021/09/16 02:52:32;;;;;;;3.60;3.13;;;14.30;99.90;;;;;;5057885;28;20529;-61
2021/09/16 02:54:59;;;;;;;4.60;3.90;;;14.30;99.90;;;;;;5058175;28;20498;-61
2021/09/16 02:57:26;;;;;;;5.27;3.30;;;14.30;99.90;;;;;;5058326;28;20462;-61
2021/09/16 02:59:53;;;;;;;7.20;3.87;;;14.30;99.90;;;;;;5057316;28;20465;-61
2021/09/16 03:02:20;;;;;;;7.47;3.70;;;14.30;99.90;;;;;;5057535;28;20568;-61
2021/09/16 03:04:47;;;;;;;4.60;3.30;;;14.30;82.50;;;;;;5057518;28;20469;-61
2021/09/16 03:07:15;;;;;;;5.70;3.40;;;14.30;43.80;;;;;;5057777;28;20565;-61
2021/09/16 03:09:42;;;;;;;4.40;3.47;;;14.30;10.00;;;;;;5053996;28;20762;-61
2021/09/16 03:12:09;;;;;;;5.50;3.27;;;14.30;1.00;;;;;;5037360;28;20526;-61
2021/09/16 03:14:36;;;;;;;3.80;2.93;;;14.20;1.00;;;;;;5037561;28;20471;-61
2021/09/16 03:17:03;;;;;;;8.83;3.30;;;14.20;1.00;;;;;;5037689;28;20509;-61
2021/09/16 03:19:32;;;;;;;6.30;3.00;;;14.20;1.00;;;;;;5037669;28;20467;-61
2021/09/16 03:21:59;;;;;;;4.47;2.87;;;14.20;1.00;;;;;;5037431;28;20486;-61
2021/09/16 03:24:30;;;;;;;3.40;2.50;;;14.20;1.00;;;;;;5037203;28;20498;-61
2021/09/16 03:26:57;;;;;;;6.43;3.90;;;14.10;1.00;;;;;;5037417;28;20553;-61
2021/09/16 03:29:24;;;;;;;4.20;3.10;;;14.00;1.00;;;;;;5050710;28;20498;-61
2021/09/16 03:31:52;;;;;;;4.70;3.30;;;14.00;1.00;;;;;;5056866;28;20500;-61
2021/09/16 03:34:19;;;;;;;8.30;3.03;;;14.00;1.00;;;;;;5057238;28;20466;-61
2021/09/16 03:36:47;;;;;;;4.43;3.00;;;13.90;1.00;;;;;;5057208;28;20518;-61
2021/09/16 03:39:14;;;;;;;7.90;3.40;;;13.80;37.80;;;;;;5056930;28;20564;-61
2021/09/16 03:41:44;;;;;;;7.60;3.50;;;13.80;87.00;;;;;;5057292;28;20515;-60
2021/09/16 03:44:11;;;;;;;3.30;3.00;;;13.80;99.90;;;;;;5057382;28;20493;-61
2021/09/16 03:46:39;;;;;;;6.43;3.10;;;13.80;99.90;;;;;;5057260;28;20501;-61
2021/09/16 03:49:06;;;;;;;4.53;3.20;;;13.80;99.90;;;;;;5057237;28;20509;-61
2021/09/16 03:51:32;;;;;;;8.07;3.23;;;13.90;99.90;;;;;;5057070;28;20952;-61
2021/09/16 03:53:59;;;;;;;5.20;3.00;;;13.90;99.90;;;;;;5056690;28;20506;-61
2021/09/16 03:56:26;;;;;;;3.30;3.00;;;13.90;99.90;;;;;;5056774;28;20493;-61
2021/09/16 03:58:55;;;;;;;6.23;3.87;;;14.00;99.90;;;;;;5057078;28;20512;-61
2021/09/16 04:01:21;;;;;;;4.17;3.37;;;14.00;99.90;;;;;;5057410;28;20458;-60
2021/09/16 04:03:48;;;;;;;5.30;3.00;;;14.00;99.90;;;;;;5057425;28;20555;-60
2021/09/16 04:06:15;;;;;;;4.43;3.40;;;14.00;67.50;;;;;;5056842;28;20482;-60
2021/09/16 04:08:42;;;;;;;4.60;3.20;;;14.00;90.50;;;;;;5056947;28;20511;-60
2021/09/16 04:11:09;;;;;;;8.03;3.93;;;14.00;73.50;;;;;;5056962;28;20465;-60
2021/09/16 04:13:36;;;;;;;7.33;3.70;;;14.00;38.90;;;;;;5056925;28;20501;-60
2021/09/16 04:16:05;;;;;;;7.37;3.70;;;13.90;88.20;;;;;;5056215;28;20553;-60
2021/09/16 04:18:32;;;;;;;6.27;3.83;;;13.90;99.90;;;;;;5056825;28;20545;-60
2021/09/16 04:20:59;;;;;;;5.03;3.33;;;13.90;99.90;;;;;;5056765;28;20956;-58
2021/09/16 04:23:26;;;;;;;3.70;3.20;;;13.90;99.90;;;;;;5057276;28;20485;-60
2021/09/16 04:25:53;;;;;;;11.63;3.73;;;13.90;99.90;;;;;;5056487;28;20552;-60
2021/09/16 04:28:19;;;;;;;5.37;3.97;;;13.90;99.90;;;;;;5056345;28;20585;-59
2021/09/16 04:30:46;;;;;;;7.17;4.00;;;13.80;99.90;;;;;;5056563;28;20497;-59
2021/09/16 04:33:15;;;;;;;6.67;4.43;;;13.80;99.90;;;;;;5056794;28;20589;-60
2021/09/16 04:35:41;;;;;;;6.57;4.27;;;13.80;99.90;;;;;;5056745;28;20712;-60
2021/09/16 04:38:08;;;;;;;6.80;4.10;;;13.70;99.90;;;;;;5056562;28;20464;-59
2021/09/16 04:40:35;;;;;;;7.13;4.63;;;13.60;99.90;;;;;;5056518;28;20835;-59
2021/09/16 04:43:02;;;;;;;6.63;4.70;;;13.60;1.00;;;;;;5056706;28;20498;-60
2021/09/16 04:45:31;;;;;;;8.03;4.70;;;13.60;1.00;;;;;;5056585;28;20497;-59
2021/09/16 04:47:58;;;;;;;8.53;4.93;;;13.50;1.00;;;;;;5056399;28;20901;-57
2021/09/16 04:50:26;;;;;;;8.50;6.13;;;13.40;23.20;;;;;;5058013;28;20466;-60
2021/09/16 04:52:54;;;;;;;8.23;6.00;;;13.40;1.00;;;;;;5060314;28;20498;-60
2021/09/16 04:55:21;;;;;;;8.03;5.30;;;13.50;99.90;;;;;;5060409;28;20839;-60
2021/09/16 04:57:48;;;;;;;10.20;7.33;;;13.40;99.90;;;;;;5060678;28;20432;-60
2021/09/16 05:00:22;;;;;;;9.07;6.17;;;13.50;99.90;;;;;;5060157;28;20462;-60
2021/09/16 05:02:49;;;;;;;11.00;7.00;;;13.40;99.90;;;;;;5057739;28;20474;-60
2021/09/16 05:05:16;;;;;;;7.10;6.37;;;13.40;1.00;;;;;;5060172;28;20485;-60
2021/09/16 05:07:44;;;;;;;11.17;7.87;;;13.40;1.00;;;;;;5059652;28;20446;-60
2021/09/16 05:10:11;;;;;;;8.57;7.20;;;13.30;99.90;;;;;;5051875;28;20518;-60
2021/09/16 05:12:38;;;;;;;9.80;6.53;;;13.40;99.90;;;;;;5040213;28;20601;-60
2021/09/16 05:15:06;;;;;;;10.67;7.17;;;13.30;1.00;;;;;;5040206;28;20495;-60
2021/09/16 05:17:35;;;;;;;12.47;7.60;;;13.30;1.00;;;;;;5042065;28;20478;-59
2021/09/16 05:20:01;;;;;;;12.80;8.33;;;13.40;99.90;;;;;;5045788;28;20566;-59
2021/09/16 05:22:30;;;;;;;13.27;8.70;;;13.40;99.90;;;;;;5053977;28;20471;-59
2021/09/16 05:24:58;;;;;;;12.40;8.43;;;13.30;99.90;;;;;;5058318;28;20508;-59
2021/09/16 05:27:27;;;;;;;14.40;8.27;;;13.30;1.00;;;;;;5055825;28;20541;-60
2021/09/16 05:29:54;;;;;;;11.13;8.30;;;13.30;99.90;;;;;;5054899;28;20840;-60
2021/09/16 05:32:21;;;;;;;13.97;9.73;;;13.30;99.90;;;;;;5044829;28;21086;-60
2021/09/16 05:34:48;;;;;;;13.57;10.23;;;13.30;99.90;;;;;;5058929;28;20474;-60
2021/09/16 05:37:18;;;;;;;17.30;9.50;;;13.30;99.90;;;;;;5058360;28;20498;-60
2021/09/16 05:39:45;;;;;;;12.03;10.70;;;13.40;1.00;;;;;;5048318;28;20500;-60
2021/09/16 05:42:17;;;;;;;11.77;10.03;;;13.40;1.00;;;;;;5047540;28;20502;-60
2021/09/16 05:44:44;;;;;;;13.23;9.90;;;13.50;1.00;;;;;;5050135;28;20482;-59
2021/09/16 05:47:10;;;;;;;13.17;10.53;;;13.50;1.00;;;;;;5056080;28;20520;-60
2021/09/16 05:49:41;;;;;;;13.40;10.67;;;13.60;1.00;;;;;;5057847;28;20490;-60
2021/09/16 05:52:11;;;;;;;15.87;12.10;;;13.60;99.90;;;;;;5058018;28;20486;-60
2021/09/16 05:54:38;;;;;;;11.13;10.00;;;13.60;99.90;;;;;;5059165;28;20467;-60
2021/09/16 05:57:05;;;;;;;18.80;10.60;;;13.60;92.10;;;;;;5058818;28;20443;-60
2021/09/16 05:59:36;;;;;;;10.90;9.80;;;13.60;1.00;;;;;;5057656;28;20477;-59
2021/09/16 06:02:06;;;;;;;19.60;9.87;;;13.70;1.00;;;;;;5056925;28;20820;-56
2021/09/16 06:04:36;;;;;;;11.47;10.40;;;13.80;1.00;;;;;;5058723;28;20811;-60
2021/09/16 06:07:04;;;;;;;11.37;9.93;;;13.80;99.90;;;;;;5059015;28;20828;-60
2021/09/16 06:09:31;;;;;;;11.17;9.60;;;13.90;8.80;;;;;;5056733;28;20498;-60
2021/09/16 06:12:02;;;;;;;10.60;9.50;;;13.90;1.00;;;;;;5038410;28;20480;-60
2021/09/16 06:14:32;;;;;;;13.60;10.27;;;13.90;1.00;;;;;;5038836;28;20477;-60
2021/09/16 06:17:04;;;;;;;10.00;9.10;;;13.90;99.90;;;;;;5039146;28;20471;-60
2021/09/16 06:19:31;;;;;;;12.10;9.30;;;14.00;1.00;;;;;;5039167;28;20473;-59
2021/09/16 06:21:58;;;;;;;10.47;9.33;;;13.90;23.30;;;;;;5038563;28;20494;-60
2021/09/16 06:24:25;;;;;;;10.50;9.40;;;14.00;99.90;;;;;;5038903;28;20499;-60
2021/09/16 06:26:54;;;;;;;11.40;9.50;;;14.10;99.90;;;;;;5038324;28;20795;-60
2021/09/16 06:29:21;;;;;;;10.70;8.70;;;14.20;99.90;;;;;;5051354;28;20812;-60
2021/09/16 06:31:50;;;;;;;12.43;9.10;;;14.30;99.90;;;;;;5058661;28;20897;-60
2021/09/16 06:34:18;;;;;;;9.80;8.90;;;14.40;99.90;;;;;;5057760;28;20458;-60
2021/09/16 06:36:45;;;;;;;11.87;10.20;;;14.40;1.00;;;;;;5058335;28;20794;-60
2021/09/16 06:39:13;;;;;;;12.30;9.40;;;14.50;1.00;;;;;;5058743;28;20685;-59
2021/09/16 06:41:40;;;;;;;11.30;9.17;;;14.40;99.90;;;;;;5058320;28;20553;-59
2021/09/16 06:44:07;;;;;;;15.73;9.37;;;14.50;99.90;;;;;;5058372;28;20460;-59
2021/09/16 06:46:37;;;;;;;13.93;9.50;;;14.50;99.90;;;;;;5057989;28;20766;-58
2021/09/16 06:49:07;;;;;;;12.53;10.07;;;14.50;99.90;;;;;;5058622;28;20484;-59
2021/09/16 06:51:40;;;;;;;14.33;10.37;;;14.50;99.90;;;;;;5058216;28;20738;-57
2021/09/16 06:54:08;;;;;;;10.03;9.00;;;14.70;99.90;;;;;;5058094;28;20537;-59
2021/09/16 06:56:35;;;;;;;14.80;9.90;;;14.60;99.90;;;;;;5057881;28;20527;-57
2021/09/16 06:59:02;;;;;;;14.30;10.10;;;14.60;99.90;;;;;;5058145;28;20505;-58
2021/09/16 07:01:29;;;;;;;13.40;9.70;;;14.70;93.30;;;;;;5058029;28;20466;-58
2021/09/16 07:03:56;;;;;;;13.63;10.20;;;14.70;54.90;;;;;;5057412;28;20498;-58
2021/09/16 07:06:24;;;;;;;17.20;9.40;;;14.70;67.10;;;;;;5057737;28;20713;-58
2021/09/16 07:08:52;;;;;;;10.63;9.63;;;14.80;68.00;;;;;;5057882;28;20473;-59
2021/09/16 07:11:23;;;;;;;11.40;8.67;;;14.80;41.10;;;;;;5057532;28;20501;-58
2021/09/16 07:13:52;;;;;;;13.37;10.30;;;14.80;10.20;;;;;;5057062;28;20530;-59
2021/09/16 07:16:21;;;;;;;10.83;9.40;;;14.80;15.20;;;;;;5057781;28;20512;-58
2021/09/16 07:18:47;;;;;;;12.30;11.00;;;14.90;16.40;;;;;;5056760;28;20505;-58
2021/09/16 07:21:21;;;;;;;13.77;11.13;;;14.80;1.00;;;;;;5057588;28;20484;-58
2021/09/16 07:23:55;;;;;;;12.40;11.10;;;14.70;1.00;;;;;;5057462;28;20458;-58
2021/09/16 07:26:25;;;;;;;13.40;12.20;;;14.60;99.90;;;;;;5057165;28;20470;-58
2021/09/16 07:28:54;;;;;;;12.67;11.47;;;14.70;99.90;;;;;;5057037;28;20491;-57
2021/09/16 07:31:21;;;;;;;14.70;11.27;;;14.70;99.90;;;;;;5057470;28;20561;-58
2021/09/16 07:33:59;;;;;;;20.87;13.80;;;14.60;83.60;;;;;;5057339;28;20530;-57
2021/09/16 07:36:26;;;;;;;14.37;12.87;;;14.80;99.90;;;;;;5057524;28;20904;-56
2021/09/16 07:38:58;;;;;;;16.90;14.67;;;14.80;99.90;;;;;;5057442;28;20502;-57
2021/09/16 07:41:29;;;;;;;14.90;13.37;;;14.90;99.90;;;;;;5057364;28;20487;-59
2021/09/16 07:43:59;;;;;;;16.27;14.77;;;14.90;99.90;;;;;;5057297;28;20511;-59
2021/09/16 07:46:27;;;;;;;15.03;13.63;;;14.70;1.00;;;;;;5057086;28;20505;-60
2021/09/16 07:49:06;;;;;;;15.17;13.57;;;14.80;1.00;;;;;;5057063;28;20469;-58
2021/09/16 07:51:33;;;;;;;14.03;12.83;;;14.60;30.30;;;;;;5057322;28;20472;-60
2021/09/16 07:54:02;;;;;;;14.30;12.97;;;14.60;1.00;;;;;;5056515;28;20513;-61
2021/09/16 07:56:29;;;;;;;15.60;14.20;;;14.60;1.00;;;;;;5057125;28;20502;-61
2021/09/16 07:58:56;;;;;;;14.17;12.77;;;14.60;99.90;;;;;;5057029;28;20952;-61
2021/09/16 08:01:25;;;;;;;14.70;13.30;;;14.60;99.90;;;;;;5057211;28;20474;-61
2021/09/16 08:03:52;;;;;;;14.73;12.60;;;14.50;1.00;;;;;;5056362;28;20464;-61
2021/09/16 08:06:19;;;;;;;13.70;12.47;;;14.40;99.90;;;;;;5056860;28;20494;-61
2021/09/16 08:08:49;;;;;;;14.30;13.10;;;14.40;16.20;;;;;;5057255;28;20481;-61
2021/09/16 08:11:17;;;;;;;15.67;14.30;;;14.50;99.90;;;;;;5040094;28;20497;-62
2021/09/16 08:13:47;;;;;;;15.60;14.07;;;14.50;99.90;;;;;;5036901;28;20936;-63
2021/09/16 08:16:17;;;;;;;15.17;13.57;;;14.50;99.90;;;;;;5036871;28;20463;-63
2021/09/16 08:18:44;;;;;;;16.30;14.20;;;14.50;99.90;;;;;;5036792;28;20463;-64
2021/09/16 08:21:16;;;;;;;14.37;13.07;;;14.50;99.90;;;;;;5036998;28;20487;-64
2021/09/16 08:23:44;;;;;;;14.30;12.90;;;14.50;99.90;;;;;;5037162;28;20463;-64
2021/09/16 08:26:14;;;;;;;17.83;16.03;;;14.60;99.90;;;;;;5039977;28;20513;-64
2021/09/16 08:28:44;;;;;;;15.27;13.73;;;14.60;99.90;;;;;;5047946;28;20525;-65
2021/09/16 08:31:13;;;;;;;16.80;14.60;;;14.50;99.90;;;;;;5060895;28;20764;-65
2021/09/16 08:33:40;;;;;;;19.80;15.17;;;14.40;99.90;;;;;;5060496;28;20525;-65
2021/09/16 08:36:10;;;;;;;20.43;15.80;;;14.60;99.90;;;;;;5060498;28;20505;-65
2021/09/16 08:38:39;;;;;;;17.47;15.50;;;14.50;99.90;;;;;;5060659;28;20485;-64
2021/09/16 08:41:14;;;;;;;16.37;14.87;;;14.70;99.90;;;;;;5060979;28;20820;-64
2021/09/16 08:43:48;;;;;;;17.10;15.17;;;14.90;99.90;;;;;;5060616;28;20449;-64
2021/09/16 08:46:16;;;;;;;14.83;13.40;;;15.10;99.90;;;;;;5060551;28;20441;-64
2021/09/16 08:48:43;;;;;;;18.07;15.97;;;15.20;13.20;;;;;;5059981;28;20890;-64
2021/09/16 08:51:14;;;;;;;17.70;15.63;;;15.30;99.90;;;;;;5060676;28;20466;-64
2021/09/16 08:53:46;;;;;;;15.03;13.37;;;15.40;1.00;;;;;;5060336;28;20974;-64
2021/09/16 08:56:14;;;;;;;15.03;13.40;;;15.40;99.90;;;;;;5060211;28;20458;-64
2021/09/16 08:58:47;;;;;;;16.27;14.67;;;15.40;1.00;;;;;;5060032;28;20461;-64
2021/09/16 09:01:18;;;;;;;17.50;15.80;;;15.40;99.90;;;;;;5060322;28;20872;-64
2021/09/16 09:03:45;;;;;;;21.90;15.73;;;15.50;1.00;;;;;;5060556;28;20543;-64
2021/09/16 09:06:27;;;;;;;17.60;15.67;;;15.60;1.00;;;;;;5059837;28;20523;-64
2021/09/16 09:09:07;;;;;;;16.70;14.23;;;15.80;21.20;;;;;;5059980;28;20465;-64
2021/09/16 09:11:57;;;;;;;15.40;12.70;;;15.90;1.00;;;;;;5051350;28;20471;-64
2021/09/16 09:14:28;;;;;;;16.50;13.03;;;15.90;99.90;;;;;;5059047;28;20852;-64
2021/09/16 09:16:55;;;;;;;17.53;14.70;;;16.10;99.90;;;;;;5058875;28;20458;-64
2021/09/16 09:19:28;;;;;;;17.53;15.07;;;16.20;38.10;;;;;;5059853;28;20489;-64
2021/09/16 09:22:00;;;;;;;15.60;13.93;;;16.20;99.90;;;;;;5057458;28;20523;-64
2021/09/16 09:24:32;;;;;;;20.13;14.47;;;16.40;99.90;;;;;;5059165;28;20457;-63
2021/09/16 09:27:03;;;;;;;15.73;13.40;;;16.60;35.10;;;;;;5058310;28;20462;-63
2021/09/16 09:29:35;;;;;;;14.13;12.63;;;16.60;1.00;;;;;;5055493;28;20465;-63
2021/09/16 09:32:07;;;;;;;15.07;13.27;;;16.10;1.00;;;;;;5057507;28;20509;-63
2021/09/16 09:34:36;;;;;;;16.37;13.73;;;16.40;99.90;;;;;;5058668;28;20498;-63
2021/09/16 09:37:10;;;;;;;15.53;11.93;;;16.60;1.00;;;;;;5058445;28;20462;-62
2021/09/16 09:39:38;;;;;;;15.47;13.00;;;16.90;1.00;;;;;;5059616;28;20918;-62
2021/09/16 09:42:19;;;;;;;13.80;12.40;;;17.00;1.00;;;;;;5059359;28;20896;-62
2021/09/16 09:44:48;;;;;;;12.67;11.37;;;17.10;1.00;;;;;;5059351;28;20462;-61
2021/09/16 09:47:16;;;;;;;13.33;12.00;;;17.40;1.00;;;;;;5059047;28;20947;-61
2021/09/16 09:49:45;;;;;;;12.70;10.73;;;17.60;1.00;;;;;;5059402;28;20502;-61
2021/09/16 09:52:15;;;;;;;13.73;12.53;;;17.70;1.00;;;;;;5059271;28;20493;-61
2021/09/16 09:54:43;;;;;;;14.17;12.73;;;17.90;1.00;;;;;;5059412;28;20537;-61
2021/09/16 09:57:12;;;;;;;15.47;14.07;;;17.70;1.00;;;;;;5059541;28;20436;-61
2021/09/16 10:00:03;;;;;;;15.60;14.20;;;17.70;1.00;;;;;;5059444;28;20454;-61
2021/09/16 10:02:41;;;;;;;17.87;14.03;;;17.90;1.00;;;;;;5059153;28;20486;-61
2021/09/16 10:05:21;;;;;;;13.60;12.30;;;18.20;1.00;;;;;;5059469;28;20454;-61
2021/09/16 10:07:49;;;;;;;14.13;12.77;;;18.30;1.00;;;;;;5059473;28;20877;-60
2021/09/16 10:10:16;;;;;;;17.17;13.50;;;18.70;1.00;;;;;;5050202;28;20481;-61
2021/09/16 10:12:54;;;;;;;15.37;13.80;;;19.10;1.00;;;;;;5038848;28;20548;-61
2021/09/16 10:15:26;;;;;;;13.30;12.13;;;19.20;1.00;;;;;;5039369;28;20517;-61
2021/09/16 10:17:55;;;;;;;10.63;9.63;;;19.10;1.00;;;;;;5039198;28;20463;-60
2021/09/16 10:20:23;;;;;;;12.37;11.07;;;18.90;1.00;;;;;;5038581;28;20521;-60
2021/09/16 10:22:53;;;;;;;11.70;8.50;;;18.70;1.00;;;;;;5038631;28;20539;-60
2021/09/16 10:25:23;;;;;;;8.33;7.50;;;18.50;1.00;;;;;;5038907;28;20510;-60
2021/09/16 10:27:59;;;;;;;10.27;7.73;;;18.20;1.00;;;;;;5038504;28;20519;-59
2021/09/16 10:30:36;;;;;;;9.10;8.07;;;18.40;1.00;;;;;;5058591;28;20466;-60
2021/09/16 10:33:06;;;;;;;9.70;7.83;;;18.40;1.00;;;;;;5058567;28;20819;-60
2021/09/16 10:35:36;;;;;;;12.97;8.70;;;18.50;1.00;;;;;;5058824;28;20490;-60
2021/09/16 10:38:24;;;;;;;16.97;11.20;;;18.50;1.00;;;;;;5058815;28;20464;-59
2021/09/16 10:41:21;;;;;;;10.17;9.10;;;18.80;1.00;;;;;;5050246;28;20494;-59
2021/09/16 10:46:40;;;;;;;8.70;7.80;;;18.80;1.00;;;;;;5038025;28;20466;-59
2021/09/16 10:49:31;;;;;;;8.37;7.67;;;18.60;1.00;;;;;;5037857;28;20470;-60
2021/09/16 10:52:03;;;;;;;8.20;7.40;;;18.70;1.00;;;;;;5038282;28;20441;-60
2021/09/16 10:54:46;;;;;;;9.37;7.17;;;18.70;1.00;;;;;;5038145;28;20621;-55
2021/09/16 10:57:15;;;;;;;7.67;6.97;;;19.30;1.00;;;;;;5038141;28;20506;-59
2021/09/16 11:00:02;;;;;;;7.67;6.90;;;19.90;1.00;;;;;;5038443;28;20808;-56
2021/09/16 11:03:10;;;;;;;7.67;6.07;;;20.60;1.00;;;;;;5037913;28;20532;-59
2021/09/16 11:06:01;;;;;;;7.60;7.00;;;21.50;99.90;;;;;;5038151;28;20463;-57
2021/09/16 11:09:03;;;;;;;7.13;6.53;;;21.60;99.90;;;;;;5037930;28;20434;-59
2021/09/16 11:11:50;;;;;;;6.93;6.10;;;21.50;99.90;;;;;;5037532;28;20493;-58
2021/09/16 11:14:37;;;;;;;7.33;6.40;;;21.50;99.90;;;;;;5037633;28;20933;-58
2021/09/16 11:17:06;;;;;;;7.50;6.80;;;21.40;99.90;;;;;;5038003;28;20499;-56
2021/09/16 11:19:45;;;;;;;7.70;6.37;;;21.60;99.90;;;;;;5039181;28;20479;-58
2021/09/16 11:22:13;;;;;;;7.93;6.97;;;21.50;99.90;;;;;;5054272;28;20469;-59
2021/09/16 11:24:42;;;;;;;7.10;6.50;;;21.70;99.90;;;;;;5052466;28;20984;-58
2021/09/16 11:27:11;;;;;;;7.03;5.77;;;22.00;99.90;;;;;;5037142;28;20463;-58
2021/09/16 11:29:48;;;;;;;5.60;4.63;;;21.90;99.90;;;;;;5050813;28;20971;-58
2021/09/16 11:32:16;;;;;;;5.43;4.93;;;21.30;99.90;;;;;;5055101;28;20474;-57
2021/09/16 11:34:55;;;;;;;5.33;4.80;;;21.10;99.90;;;;;;5039265;28;20491;-54
2021/09/16 11:37:29;;;;;;;5.33;4.63;;;21.80;99.90;;;;;;5036710;28;20479;-57
2021/09/16 11:40:06;;;;;;;6.57;4.33;;;22.70;99.90;;;;;;5047248;28;20444;-58
2021/09/16 11:42:35;;;;;;;4.63;3.70;;;23.20;99.90;;;;;;5056690;28;20576;-58
2021/09/16 11:45:14;;;;;;;5.80;3.80;;;23.30;99.90;;;;;;5056105;28;20475;-57
2021/09/16 11:47:52;;;;;;;4.40;3.60;;;22.40;99.90;;;;;;5055834;28;20484;-54
2021/09/16 11:50:30;;;;;;;5.93;5.40;;;21.90;99.90;;;;;;5057167;28;20509;-51
2021/09/16 11:53:02;;;;;;;6.10;5.20;;;21.30;99.90;;;;;;5055084;28;20462;-53
2021/09/16 11:55:37;;;;;;;5.40;4.67;;;21.10;99.90;;;;;;5056808;28;20836;-57
2021/09/16 11:58:10;;;;;;;6.00;4.83;;;21.10;99.90;;;;;;5056675;28;20545;-57
2021/09/16 12:00:41;;;;;;;5.67;5.00;;;21.30;99.90;;;;;;5056465;28;20508;-56
2021/09/16 12:03:12;;;;;;;11.60;4.70;;;21.40;99.90;;;;;;5057256;28;20462;-54
2021/09/16 12:05:46;;;;;;;4.47;4.00;;;21.20;99.90;;;;;;5055431;28;20497;-50
2021/09/16 12:08:20;;;;;;;5.83;4.70;;;20.90;99.90;;;;;;5036396;28;20463;-57
2021/09/16 12:10:54;;;;;;;5.10;4.70;;;20.60;99.90;;;;;;5051565;28;20486;-54
2021/09/16 12:13:29;;;;;;;6.00;5.20;;;20.00;99.90;;;;;;5046449;28;20470;-57
2021/09/16 12:16:15;;;;;;;7.70;7.00;;;20.10;99.90;;;;;;5055591;28;20588;-55
2021/09/16 12:18:46;;;;;;;7.30;6.70;;;20.30;99.90;;;;;;5040277;28;20500;-53
2021/09/16 12:21:19;;;;;;;6.30;5.07;;;20.20;99.90;;;;;;5048375;28;20483;-56
2021/09/16 12:23:50;;;;;;;6.03;5.43;;;20.20;99.90;;;;;;5041241;28;20510;-57
2021/09/16 12:26:19;;;;;;;4.93;4.40;;;20.10;99.90;;;;;;5056861;28;20545;-51
2021/09/16 12:28:53;;;;;;;9.00;4.47;;;20.10;99.90;;;;;;5056140;28;20518;-56
2021/09/16 12:31:27;;;;;;;5.73;3.70;;;20.40;99.90;;;;;;5057145;28;20875;-56
2021/09/16 12:33:57;;;;;;;6.33;3.63;;;20.40;99.90;;;;;;5056213;28;20514;-56
2021/09/16 12:36:26;;;;;;;4.60;4.20;;;20.50;99.90;;;;;;5056582;28;20483;-53
2021/09/16 12:39:00;;;;;;;6.00;4.13;;;20.70;99.90;;;;;;5056195;28;20493;-56
2021/09/16 12:41:34;;;;;;;7.70;3.67;;;20.30;99.90;;;;;;5056573;28;20824;-54
2021/09/16 12:44:07;;;;;;;4.70;4.30;;;20.30;99.90;;;;;;5054081;28;20929;-54
2021/09/16 12:46:49;;;;;;;4.83;4.00;;;20.10;99.90;;;;;;5039996;28;20504;-54
2021/09/16 12:49:26;;;;;;;4.13;3.63;;;19.80;99.90;;;;;;5054966;28;20516;-54
2021/09/16 12:52:05;;;;;;;4.47;4.03;;;19.90;99.90;;;;;;5056293;28;20580;-57
2021/09/16 12:54:34;;;;;;;5.73;4.30;;;20.00;99.90;;;;;;5056550;28;20956;-55
2021/09/16 12:57:03;;;;;;;5.20;4.07;;;20.50;99.90;;;;;;5056425;28;20440;-52
2021/09/16 12:59:33;;;;;;;7.50;5.37;;;20.70;99.90;;;;;;5056590;28;20467;-57